Time;durP1;ratioP1;P1;durP2;ratioP2;P2;SDS_P1;SDS_P2;PMS_P1;PMS_P2;Temp;Humidity;BMP_temperature;BMP_pressure;BME280_temperature;BME280_humidity;BME280_pressure;Samples;Min_cycle;Max_cycle;Signal;HPM_P1;HPM_P2
2022/03/06 00:01:00;;;;;;;36.30;21.50;;;;;;;-5.37;81.28;97625.78;109801;1249;68613;-62
2022/03/06 00:03:31;;;;;;;34.90;19.50;;;;;;;-5.39;81.26;97623.27;109658;1251;69803;-61
2022/03/06 00:06:00;;;;;;;31.20;20.70;;;;;;;-5.42;80.82;97621.22;109585;1250;60593;-61
2022/03/06 00:08:30;;;;;;;21.20;13.40;;;;;;;-5.43;80.87;97623.10;109607;1250;60561;-61
2022/03/06 00:11:00;;;;;;;27.30;16.00;;;;;;;-5.40;79.76;97627.51;109699;1251;72311;-64
2022/03/06 00:13:29;;;;;;;29.80;16.80;;;;;;;-5.32;79.74;97625.42;109941;1250;68424;-62
2022/03/06 00:15:59;;;;;;;30.60;16.40;;;;;;;-5.24;80.25;97625.37;109725;1250;69392;-62
2022/03/06 00:18:30;;;;;;;40.70;23.30;;;;;;;-5.17;81.60;97624.80;109783;1250;60609;-63
2022/03/06 00:21:00;;;;;;;32.90;20.50;;;;;;;-5.13;82.60;97624.26;109829;1250;60477;-65
2022/03/06 00:23:30;;;;;;;31.00;17.70;;;;;;;-5.06;81.27;97619.30;109798;1249;71812;-65
2022/03/06 00:26:00;;;;;;;25.70;15.50;;;;;;;-5.03;80.87;97619.77;109796;1250;68570;-67
2022/03/06 00:28:30;;;;;;;36.20;22.80;;;;;;;-5.05;82.76;97623.70;109581;1251;69656;-62
2022/03/06 00:31:00;;;;;;;31.20;18.40;;;;;;;-5.08;82.29;97623.03;109652;1250;60505;-63
2022/03/06 00:33:29;;;;;;;26.80;16.70;;;;;;;-5.11;81.24;97618.81;109768;1250;60480;-65
2022/03/06 00:35:59;;;;;;;35.40;19.80;;;;;;;-5.15;81.18;97619.34;109780;1250;71442;-67
2022/03/06 00:38:28;;;;;;;35.00;21.50;;;;;;;-5.19;81.41;97619.71;109848;1250;67814;-63
2022/03/06 00:40:58;;;;;;;30.00;18.10;;;;;;;-5.18;81.43;97623.27;109518;1253;68725;-67
2022/03/06 00:43:29;;;;;;;30.60;17.10;;;;;;;-5.15;81.60;97617.98;109824;1250;60890;-62
2022/03/06 00:45:59;;;;;;;39.40;22.90;;;;;;;-5.12;82.49;97617.80;109629;1250;60483;-68
2022/03/06 00:48:29;;;;;;;35.10;20.30;;;;;;;-5.14;84.22;97613.89;109468;1251;72351;-66
2022/03/06 00:50:59;;;;;;;28.90;16.00;;;;;;;-5.13;82.99;97613.89;109768;1250;68622;-63
2022/03/06 00:53:29;;;;;;;37.20;19.50;;;;;;;-5.09;81.85;97611.84;109654;1251;68593;-63
2022/03/06 00:55:59;;;;;;;28.70;16.20;;;;;;;-5.07;82.96;97610.63;109749;1251;60862;-63
2022/03/06 00:58:29;;;;;;;28.90;16.80;;;;;;;-5.02;82.17;97612.46;109710;1250;60539;-62
2022/03/06 01:00:59;;;;;;;36.10;18.20;;;;;;;-4.96;82.49;97611.73;109806;1249;72136;-66
2022/03/06 01:03:30;;;;;;;32.40;16.20;;;;;;;-4.91;83.01;97608.63;109807;1250;68582;-61
2022/03/06 01:05:59;;;;;;;30.00;17.80;;;;;;;-4.89;83.27;97603.86;109756;1250;68587;-62
2022/03/06 01:08:29;;;;;;;29.30;16.00;;;;;;;-4.89;83.45;97603.00;109826;1250;60530;-68
2022/03/06 01:10:59;;;;;;;;;;;;;;;-4.90;83.55;97602.66;109818;1250;60585;-67
2022/03/06 01:13:30;;;;;;;33.40;18.20;;;;;;;-4.92;83.69;97602.67;109843;1250;72394;-64
2022/03/06 01:15:59;;;;;;;23.30;14.40;;;;;;;-4.97;83.57;97601.52;109791;1250;67848;-66
2022/03/06 01:18:34;;;;;;;22.10;13.50;;;;;;;-5.00;82.91;97601.39;109697;1250;69326;-63
2022/03/06 01:21:04;;;;;;;24.50;15.10;;;;;;;-5.04;82.72;97598.70;109798;1250;60495;-61
2022/03/06 01:23:37;;;;;;;35.60;19.50;;;;;;;-5.04;82.52;97600.91;109593;1250;60556;-62
2022/03/06 01:26:07;;;;;;;21.00;13.50;;;;;;;-5.08;82.90;97598.73;109778;1250;71640;-62
2022/03/06 01:28:38;;;;;;;28.90;18.70;;;;;;;-5.12;82.59;97595.88;109691;1250;67829;-62
2022/03/06 01:31:07;;;;;;;;;;;;;;;-5.19;82.86;97592.70;109819;1250;69306;-61
2022/03/06 01:33:37;;;;;;;38.10;20.50;;;;;;;-5.25;83.17;97588.67;109820;1250;60635;-61
2022/03/06 01:36:07;;;;;;;;;;;;;;;-5.33;84.42;97588.90;109610;1251;60482;-61
2022/03/06 01:38:37;;;;;;;26.50;16.50;;;;;;;-5.39;84.80;97593.02;109804;1249;72417;-62
2022/03/06 01:41:07;;;;;;;24.20;14.80;;;;;;;-5.44;84.13;97593.23;109696;1250;67913;-65
2022/03/06 01:43:37;;;;;;;;;;;;;;;-5.51;83.61;97590.38;109790;1250;69258;-64
2022/03/06 01:46:07;;;;;;;36.20;19.20;;;;;;;-5.55;83.68;97587.52;109806;1250;60511;-62
2022/03/06 01:48:37;;;;;;;30.10;16.30;;;;;;;-5.62;83.54;97587.90;109578;1251;60534;-62
2022/03/06 01:51:07;;;;;;;26.70;16.90;;;;;;;-5.70;83.17;97588.11;109809;1250;70753;-63
2022/03/06 01:53:37;;;;;;;43.90;22.60;;;;;;;-5.77;82.92;97585.27;109775;1250;67446;-63
2022/03/06 01:56:09;;;;;;;21.40;14.40;;;;;;;-5.82;82.87;97583.94;109583;1251;68629;-63
2022/03/06 01:58:39;;;;;;;40.40;20.40;;;;;;;-5.88;82.90;97583.28;109794;1250;60513;-61
2022/03/06 02:01:09;;;;;;;26.40;17.20;;;;;;;-5.93;82.96;97584.17;109695;1251;60889;-62
2022/03/06 02:03:39;;;;;;;;;;;;;;;-5.96;83.70;97585.89;109811;1250;72330;-61
2022/03/06 02:06:09;;;;;;;32.60;17.10;;;;;;;-5.98;84.19;97586.41;109770;1250;68018;-64
2022/03/06 02:08:40;;;;;;;41.50;21.00;;;;;;;-6.02;83.62;97583.05;109698;1250;68653;-61
2022/03/06 02:11:11;;;;;;;35.00;17.80;;;;;;;-6.04;83.54;97581.20;109713;1250;60554;-61
2022/03/06 02:13:41;;;;;;;;;;;;;;;-6.08;83.99;97580.70;109743;1250;60544;-62
2022/03/06 02:16:12;;;;;;;34.90;19.50;;;;;;;-6.13;84.32;97581.23;109798;1250;72405;-63
2022/03/06 02:18:42;;;;;;;31.40;18.50;;;;;;;-6.20;83.56;97581.93;109565;1250;68575;-62
2022/03/06 02:21:13;;;;;;;;;;;;;;;-6.25;83.45;97580.43;109688;1250;68629;-62
2022/03/06 02:23:45;;;;;;;34.30;17.80;;;;;;;-6.30;83.74;97586.20;109863;1250;60549;-61
2022/03/06 02:26:15;;;;;;;20.40;12.20;;;;;;;-6.34;83.75;97585.03;109801;1250;60460;-65
2022/03/06 02:28:49;;;;;;;23.60;12.20;;;;;;;-6.35;83.16;97586.23;109841;1249;71931;-63
2022/03/06 02:31:19;;;;;;;34.60;19.20;;;;;;;-6.38;82.84;97590.30;109748;1250;68440;-61
2022/03/06 02:33:49;;;;;;;34.10;20.20;;;;;;;-6.40;83.62;97592.69;109697;1250;69513;-62
2022/03/06 02:36:19;;;;;;;24.40;14.50;;;;;;;-6.40;85.25;97598.62;109827;1250;60518;-62
2022/03/06 02:38:50;;;;;;;20.10;11.60;;;;;;;-6.39;84.68;97600.82;109699;1250;60559;-63
2022/03/06 02:41:20;;;;;;;22.10;13.80;;;;;;;-6.39;83.93;97602.17;109663;1250;71424;-64
2022/03/06 02:43:50;;;;;;;19.30;10.60;;;;;;;-6.41;83.60;97602.52;108948;1250;1115038;-62
2022/03/06 02:46:21;;;;;;;21.60;13.20;;;;;;;-6.41;82.96;97600.16;109800;1250;68640;-63
2022/03/06 02:48:51;;;;;;;31.60;17.20;;;;;;;-6.38;82.21;97598.62;109705;1251;60585;-60
2022/03/06 02:51:21;;;;;;;22.90;14.70;;;;;;;-6.38;82.81;97595.58;109870;1250;60491;-62
2022/03/06 02:53:51;;;;;;;31.40;18.40;;;;;;;-6.39;83.19;97590.81;109589;1251;72188;-61
2022/03/06 02:56:22;;;;;;;32.70;20.80;;;;;;;-6.40;83.94;97597.09;109678;1249;68691;-62
2022/03/06 02:58:52;;;;;;;;;;;;;;;-6.41;84.05;97597.27;109995;1248;68410;-62
2022/03/06 03:01:22;;;;;;;;;;;;;;;-6.41;83.81;97599.64;109638;1251;60565;-65
2022/03/06 03:03:54;;;;;;;38.80;20.70;;;;;;;-6.43;83.68;97602.70;109793;1250;60472;-64
2022/03/06 03:06:23;;;;;;;33.90;19.10;;;;;;;-6.45;85.28;97601.86;109779;1250;72161;-65
2022/03/06 03:08:54;;;;;;;23.30;11.90;;;;;;;-6.43;85.06;97606.77;109843;1249;68577;-65
2022/03/06 03:11:25;;;;;;;26.50;14.50;;;;;;;-6.31;83.08;97607.91;109720;1250;68635;-66
2022/03/06 03:13:55;;;;;;;25.60;14.70;;;;;;;-6.21;83.00;97603.81;109877;1250;60548;-65
2022/03/06 03:16:26;;;;;;;27.90;17.00;;;;;;;-6.18;82.99;97602.96;109856;1250;60530;-64
2022/03/06 03:18:56;;;;;;;;;;;;;;;-6.20;83.81;97606.52;109896;1250;71609;-63
2022/03/06 03:21:28;;;;;;;36.30;19.20;;;;;;;-6.27;84.05;97607.40;110054;1249;67649;-61
2022/03/06 03:24:00;;;;;;;25.10;14.90;;;;;;;-6.34;84.42;97609.12;109814;1250;69454;-60
2022/03/06 03:26:30;;;;;;;31.80;18.50;;;;;;;-6.37;84.09;97609.46;109806;1250;60518;-65
2022/03/06 03:29:00;;;;;;;;;;;;;;;-6.43;84.54;97609.48;109567;1251;60570;-64
2022/03/06 03:31:30;;;;;;;23.60;13.20;;;;;;;-6.44;84.67;97606.94;109821;1250;72307;-64
2022/03/06 03:34:00;;;;;;;23.50;13.00;;;;;;;-6.39;83.71;97607.27;109863;1249;67068;-61
2022/03/06 03:36:31;;;;;;;27.80;15.70;;;;;;;-6.31;83.18;97610.46;109695;1250;68510;-62
2022/03/06 03:39:01;;;;;;;21.80;12.30;;;;;;;-6.30;83.26;97613.02;109712;1251;60917;-61
2022/03/06 03:41:32;;;;;;;36.20;20.40;;;;;;;-6.35;84.36;97607.42;109986;1250;60534;-61
2022/03/06 03:44:03;;;;;;;31.10;18.60;;;;;;;-6.38;85.24;97608.80;110045;1250;72386;-64
2022/03/06 03:46:33;;;;;;;30.50;17.10;;;;;;;-6.39;85.08;97612.02;109713;1250;68598;-65
2022/03/06 03:49:03;;;;;;;23.40;14.40;;;;;;;-6.41;85.33;97613.22;109672;1251;68456;-63
2022/03/06 03:51:34;;;;;;;25.40;14.00;;;;;;;-6.37;84.14;97617.61;109837;1250;60545;-61
2022/03/06 03:54:04;;;;;;;25.40;13.70;;;;;;;-6.32;83.44;97618.11;109653;1251;60477;-61
2022/03/06 03:56:35;;;;;;;32.40;18.60;;;;;;;-6.32;83.77;97619.98;109651;1250;71786;-64
2022/03/06 03:59:05;;;;;;;42.60;21.60;;;;;;;-6.33;85.50;97618.29;109842;1250;67792;-62
2022/03/06 04:01:35;;;;;;;30.00;17.90;;;;;;;-6.29;85.24;97621.65;109797;1250;68694;-65
2022/03/06 04:04:06;;;;;;;28.70;16.20;;;;;;;-6.21;84.19;97624.86;109837;1250;60493;-62
2022/03/06 04:06:35;;;;;;;27.00;15.90;;;;;;;-6.08;84.32;97623.30;109851;1250;60503;-61
2022/03/06 04:09:05;;;;;;;32.50;18.00;;;;;;;-5.96;84.55;97619.33;109722;1250;71242;-62
2022/03/06 04:11:35;;;;;;;25.60;14.50;;;;;;;-5.91;84.54;97615.05;109914;1249;67442;-62
2022/03/06 04:14:05;;;;;;;25.80;14.20;;;;;;;-5.85;84.48;97613.31;109768;1250;68665;-62
2022/03/06 04:16:36;;;;;;;31.00;16.40;;;;;;;-5.79;84.50;97613.11;109813;1250;60554;-60
2022/03/06 04:19:07;;;;;;;26.50;15.20;;;;;;;-5.77;84.49;97606.48;109924;1250;60431;-62
2022/03/06 04:21:37;;;;;;;23.60;14.60;;;;;;;-5.75;84.28;97600.20;109844;1250;71544;-62
2022/03/06 04:24:07;;;;;;;31.10;17.30;;;;;;;-5.75;83.97;97600.36;109871;1250;68490;-61
2022/03/06 04:26:38;;;;;;;23.30;14.80;;;;;;;-5.78;83.74;97603.09;109722;1250;69274;-62
2022/03/06 04:29:08;;;;;;;24.80;14.20;;;;;;;-5.78;83.23;97609.38;109602;1250;60575;-61
2022/03/06 04:31:37;;;;;;;25.90;14.70;;;;;;;-5.82;82.74;97606.00;109852;1250;60492;-61
2022/03/06 04:34:08;;;;;;;23.70;13.50;;;;;;;-5.86;82.42;97602.80;109744;1250;72217;-62
2022/03/06 04:36:37;;;;;;;26.80;15.70;;;;;;;-5.94;82.21;97599.64;109748;1250;67932;-62
2022/03/06 04:39:08;;;;;;;21.70;12.00;;;;;;;-6.06;82.31;97599.69;109828;1250;68452;-63
2022/03/06 04:41:38;;;;;;;26.60;15.90;;;;;;;-6.15;82.51;97604.48;109785;1250;60570;-62
2022/03/06 04:44:07;;;;;;;24.00;13.50;;;;;;;-6.24;83.89;97604.33;109743;1251;60492;-64
2022/03/06 04:46:37;;;;;;;25.30;13.10;;;;;;;-6.23;83.02;97606.04;109858;1250;71574;-61
2022/03/06 04:49:07;;;;;;;24.30;12.00;;;;;;;-6.22;82.72;97610.79;109850;1250;67686;-67
2022/03/06 04:51:36;;;;;;;22.50;13.80;;;;;;;-6.24;82.67;97608.07;109856;1250;68750;-65
2022/03/06 04:54:07;;;;;;;23.40;12.90;;;;;;;-6.24;82.72;97611.98;109750;1249;60547;-65
2022/03/06 04:56:36;;;;;;;24.30;15.30;;;;;;;-6.28;82.68;97609.27;109797;1250;60506;-65
2022/03/06 04:59:06;;;;;;;32.70;19.10;;;;;;;-6.33;82.72;97614.20;109902;1250;73090;-66
2022/03/06 05:01:36;;;;;;;26.10;13.20;;;;;;;-6.36;83.32;97614.89;110038;1250;66871;-66
2022/03/06 05:04:06;;;;;;;26.40;15.60;;;;;;;-6.33;82.83;97613.87;109960;1249;69436;-63
2022/03/06 05:06:36;;;;;;;30.60;17.70;;;;;;;-6.29;82.83;97614.36;109681;1250;61015;-63
2022/03/06 05:09:05;;;;;;;22.80;13.60;;;;;;;-6.30;82.82;97616.39;109716;1250;60524;-62
2022/03/06 05:11:36;;;;;;;34.80;19.10;;;;;;;-6.32;83.15;97620.14;109958;1250;72477;-65
2022/03/06 05:14:06;;;;;;;22.90;13.60;;;;;;;-6.36;83.94;97623.20;109987;1249;67809;-62
2022/03/06 05:16:35;;;;;;;20.50;12.80;;;;;;;-6.36;83.42;97627.45;109977;1249;69459;-67
2022/03/06 05:19:05;;;;;;;35.20;18.50;;;;;;;-6.37;83.11;97628.47;109838;1250;60530;-64
2022/03/06 05:21:36;;;;;;;21.30;12.40;;;;;;;-6.37;83.04;97630.85;109917;1250;60889;-63
2022/03/06 05:24:06;;;;;;;20.30;11.80;;;;;;;-6.35;82.77;97634.41;109878;1249;72362;-62
2022/03/06 05:26:36;;;;;;;38.90;20.00;;;;;;;-6.29;82.70;97629.81;109637;1250;68488;-62
2022/03/06 05:29:06;;;;;;;23.90;13.90;;;;;;;-6.27;82.74;97632.52;109782;1250;69378;-61
2022/03/06 05:31:35;;;;;;;26.90;15.10;;;;;;;-6.24;82.52;97629.96;109912;1248;60530;-63
2022/03/06 05:34:05;;;;;;;21.40;13.60;;;;;;;-6.18;82.47;97632.31;110048;1250;60543;-65
2022/03/06 05:36:34;;;;;;;28.00;18.20;;;;;;;-6.10;82.32;97635.34;109852;1250;71614;-63
2022/03/06 05:39:04;;;;;;;26.60;16.90;;;;;;;-6.00;82.45;97633.95;109830;1250;68628;-62
2022/03/06 05:41:33;;;;;;;24.20;14.50;;;;;;;-5.82;82.83;97629.26;109746;1250;68479;-67
2022/03/06 05:44:03;;;;;;;19.20;12.50;;;;;;;-5.57;82.78;97629.65;109673;1250;60570;-62
2022/03/06 05:46:32;;;;;;;26.40;16.10;;;;;;;-5.23;82.34;97636.56;109803;1250;60440;-65
2022/03/06 05:49:02;;;;;;;46.60;24.10;;;;;;;-4.88;81.36;97636.48;109798;1250;72451;-63
2022/03/06 05:51:32;;;;;;;28.20;18.20;;;;;;;-4.57;80.57;97637.23;109767;1250;68625;-65
2022/03/06 05:54:01;;;;;;;45.90;25.80;;;;;;;-4.25;80.50;97635.39;109858;1250;69257;-63
2022/03/06 05:56:32;;;;;;;52.60;30.60;;;;;;;-4.12;79.57;97637.47;109850;1250;60497;-61
2022/03/06 05:59:03;;;;;;;38.40;25.50;;;;;;;-3.99;79.83;97636.13;109791;1250;60457;-63
2022/03/06 06:01:32;;;;;;;44.30;25.40;;;;;;;-3.80;79.31;97638.46;109792;1250;71765;-61
2022/03/06 06:04:02;;;;;;;44.40;28.10;;;;;;;-3.57;79.47;97639.86;109739;1250;68603;-61
2022/03/06 06:06:31;;;;;;;44.10;28.20;;;;;;;-3.24;78.13;97640.09;109806;1250;69912;-64
2022/03/06 06:09:01;;;;;;;75.80;41.10;;;;;;;-2.96;74.95;97644.11;109860;1249;60553;-67
2022/03/06 06:11:31;;;;;;;61.40;36.40;;;;;;;-2.62;73.12;97639.97;109803;1250;60489;-69
2022/03/06 06:14:01;;;;;;;70.00;41.40;;;;;;;-2.24;73.78;97637.79;109614;1250;71881;-64
2022/03/06 06:16:31;;;;;;;67.50;41.60;;;;;;;-1.93;70.40;97636.00;109782;1250;68745;-61
2022/03/06 06:19:01;;;;;;;76.60;42.10;;;;;;;-1.53;72.20;97638.45;109893;1250;68670;-65
2022/03/06 06:21:30;;;;;;;69.40;40.80;;;;;;;-1.12;73.67;97640.80;109997;1249;60564;-63
2022/03/06 06:23:59;;;;;;;86.10;50.80;;;;;;;-0.75;71.23;97644.38;109845;1249;60476;-62
2022/03/06 06:26:29;;;;;;;77.40;43.60;;;;;;;-0.59;66.76;97639.54;109858;1250;72149;-60
2022/03/06 06:29:00;;;;;;;67.70;39.90;;;;;;;-0.32;69.50;97638.52;109706;1250;68585;-62
2022/03/06 06:31:31;;;;;;;97.50;58.10;;;;;;;0.15;71.84;97641.71;109956;1249;70129;-62
2022/03/06 06:34:00;;;;;;;96.90;58.10;;;;;;;0.56;67.19;97641.08;109954;1249;60514;-66
2022/03/06 06:36:30;;;;;;;83.50;50.10;;;;;;;0.85;63.32;97639.73;109933;1250;60499;-65
2022/03/06 06:38:59;;;;;;;77.40;45.00;;;;;;;0.93;61.25;97641.67;109702;1250;72298;-65
2022/03/06 06:41:28;;;;;;;74.00;44.90;;;;;;;1.27;64.70;97646.48;109873;1250;68579;-64
2022/03/06 06:43:58;;;;;;;62.50;37.10;;;;;;;1.53;63.38;97646.46;109827;1249;69012;-67
2022/03/06 06:46:27;;;;;;;65.10;38.80;;;;;;;1.88;65.17;97649.06;109700;1250;60669;-66
2022/03/06 06:48:56;;;;;;;63.00;39.50;;;;;;;2.18;67.65;97644.79;109739;1249;60526;-61
2022/03/06 06:51:27;;;;;;;65.20;43.00;;;;;;;2.37;63.37;97643.74;109757;1250;71398;-65
2022/03/06 06:53:56;;;;;;;62.80;39.90;;;;;;;2.58;59.86;97649.01;109851;1250;68652;-64
2022/03/06 06:56:25;;;;;;;54.50;35.70;;;;;;;2.84;57.77;97650.23;109930;1250;69521;-66
2022/03/06 06:58:54;;;;;;;60.20;39.60;;;;;;;3.26;57.55;97652.92;109927;1249;60508;-66
2022/03/06 07:01:24;;;;;;;59.30;37.50;;;;;;;3.63;56.79;97650.20;109804;1250;60485;-67
2022/03/06 07:03:54;;;;;;;47.60;33.20;;;;;;;4.00;59.92;97646.78;109672;1250;73005;-64
2022/03/06 07:06:25;;;;;;;49.20;33.20;;;;;;;4.16;58.30;97647.30;109627;1250;68639;-66
2022/03/06 07:08:56;;;;;;;42.00;27.60;;;;;;;4.37;61.88;97649.63;109633;1250;69440;-64
2022/03/06 07:11:26;;;;;;;48.70;33.40;;;;;;;4.58;59.60;97649.77;109748;1250;60557;-67
2022/03/06 07:13:56;;;;;;;37.60;27.10;;;;;;;4.72;56.24;97650.85;109730;1250;60561;-66
2022/03/06 07:16:31;;;;;;;32.80;23.30;;;;;;;5.07;56.43;97649.23;109875;1250;72052;-68
2022/03/06 07:19:01;;;;;;;33.30;23.80;;;;;;;5.44;56.26;97649.39;109787;1250;68601;-68
2022/03/06 07:21:30;;;;;;;26.60;19.30;;;;;;;5.62;51.25;97646.42;109899;1250;68759;-64
2022/03/06 07:23:59;;;;;;;23.50;16.10;;;;;;;6.25;50.47;97646.73;109877;1250;60488;-66
2022/03/06 07:26:29;;;;;;;21.80;14.30;;;;;;;6.65;46.61;97652.45;109959;1248;60448;-65
2022/03/06 07:29:00;;;;;;;22.60;17.00;;;;;;;7.08;45.57;97653.77;109885;1249;71391;-63
2022/03/06 07:31:30;;;;;;;12.80;9.70;;;;;;;7.50;46.21;97651.91;109695;1251;68711;-63
2022/03/06 07:34:00;;;;;;;12.50;9.30;;;;;;;7.96;42.49;97647.53;109649;1250;69574;-64
2022/03/06 07:36:31;;;;;;;13.40;10.10;;;;;;;8.45;41.56;97649.52;109449;1254;60568;-63
2022/03/06 07:39:09;;;;;;;13.10;9.40;;;;;;;8.94;40.25;97646.69;109786;1250;60563;-66
2022/03/06 07:41:44;;;;;;;10.80;8.20;;;;;;;9.13;38.35;97648.64;109550;1250;71752;-64
2022/03/06 07:44:13;;;;;;;12.10;9.50;;;;;;;9.49;36.83;97652.05;109863;1250;67832;-66
2022/03/06 07:46:44;;;;;;;;;;;;;;;9.82;36.69;97649.26;109537;1250;69721;-64
2022/03/06 07:49:14;;;;;;;10.90;8.60;;;;;;;9.82;34.34;97646.41;109695;1250;60551;-67
2022/03/06 07:51:45;;;;;;;11.90;9.10;;;;;;;9.90;34.66;97642.45;109738;1250;60441;-64
2022/03/06 07:54:17;;;;;;;11.80;9.00;;;;;;;10.25;34.30;97643.75;109757;1250;71775;-65
2022/03/06 07:56:49;;;;;;;10.00;7.70;;;;;;;10.30;34.18;97648.66;109781;1250;68628;-68
2022/03/06 07:59:25;;;;;;;10.30;9.10;;;;;;;10.60;32.33;97649.73;109626;1250;70427;-65
2022/03/06 08:01:56;;;;;;;10.40;8.00;;;;;;;10.83;32.14;97651.12;109594;1250;60538;-65
2022/03/06 08:04:26;;;;;;;11.80;9.10;;;;;;;10.93;32.57;97646.54;109814;1249;60448;-69
2022/03/06 08:06:59;;;;;;;9.60;8.60;;;;;;;10.37;31.61;97641.73;109706;1248;72436;-68
2022/03/06 08:09:29;;;;;;;10.10;7.80;;;;;;;10.84;31.23;97641.98;109742;1250;67853;-66
2022/03/06 08:12:00;;;;;;;10.00;7.20;;;;;;;11.26;31.43;97641.43;110031;1248;69265;-67
2022/03/06 08:14:31;;;;;;;8.30;6.90;;;;;;;11.74;30.90;97636.90;109623;1252;60462;-66
2022/03/06 08:17:02;;;;;;;;;;;;;;;11.81;30.58;97638.45;109862;1250;60532;-69
2022/03/06 08:19:37;;;;;;;9.80;7.20;;;;;;;12.06;29.91;97631.21;109852;1250;72208;-64
2022/03/06 08:22:07;;;;;;;10.10;7.80;;;;;;;12.26;28.89;97627.58;109804;1250;68053;-66
2022/03/06 08:24:38;;;;;;;9.80;7.10;;;;;;;12.23;29.48;97623.78;109683;1250;69294;-66
2022/03/06 08:27:07;;;;;;;9.70;7.50;;;;;;;12.38;29.22;97622.51;109518;1253;60650;-66
2022/03/06 08:29:37;;;;;;;11.00;7.60;;;;;;;12.64;28.54;97619.21;109792;1250;60538;-67
2022/03/06 08:32:08;;;;;;;12.00;9.40;;;;;;;12.72;27.61;97616.52;109611;1250;72319;-64
2022/03/06 08:34:39;;;;;;;10.00;7.50;;;;;;;11.93;27.27;97618.35;109869;1250;68443;-65
2022/03/06 08:37:11;;;;;;;11.20;7.80;;;;;;;11.56;28.12;97617.05;109782;1250;69465;-68
2022/03/06 08:39:41;;;;;;;9.50;7.70;;;;;;;11.78;28.09;97614.80;109741;1250;60639;-67
2022/03/06 08:42:10;;;;;;;10.40;8.40;;;;;;;11.48;28.48;97615.42;109717;1250;60545;-62
2022/03/06 08:44:39;;;;;;;8.70;7.80;;;;;;;11.46;28.64;97618.52;109715;1250;72310;-66
2022/03/06 08:47:09;;;;;;;;;;;;;;;11.90;28.51;97612.29;109773;1250;68627;-65
2022/03/06 08:49:39;;;;;;;9.90;7.40;;;;;;;12.31;28.56;97610.09;109744;1250;69541;-67
2022/03/06 08:52:08;;;;;;;8.90;7.20;;;;;;;12.92;28.28;97609.16;109676;1250;60569;-65
2022/03/06 08:54:39;;;;;;;10.00;8.20;;;;;;;13.33;26.99;97607.84;109825;1250;60551;-64
2022/03/06 08:57:14;;;;;;;9.50;7.10;;;;;;;13.33;27.66;97604.65;109804;1250;72134;-65
2022/03/06 08:59:44;;;;;;;9.60;7.50;;;;;;;14.03;26.35;97598.62;109608;1250;67629;-67
2022/03/06 09:02:13;;;;;;;10.40;7.90;;;;;;;14.44;26.46;97603.04;109796;1250;69406;-65
2022/03/06 09:04:43;;;;;;;;;;;;;;;14.93;25.59;97598.60;109572;1253;60534;-66
2022/03/06 09:07:13;;;;;;;9.70;8.00;;;;;;;15.39;25.39;97595.98;109824;1250;60461;-66
2022/03/06 09:09:44;;;;;;;8.70;7.40;;;;;;;15.82;25.91;97591.70;109619;1250;72162;-66
2022/03/06 09:12:19;;;;;;;10.90;8.30;;;;;;;16.23;24.71;97590.80;109681;1250;68798;-64
2022/03/06 09:14:48;;;;;;;10.90;8.50;;;;;;;16.16;23.55;97584.22;109836;1251;68658;-66
2022/03/06 09:17:20;;;;;;;9.70;8.40;;;;;;;14.94;23.45;97589.40;109702;1250;60441;-64
2022/03/06 09:19:51;;;;;;;10.70;8.60;;;;;;;14.46;24.08;97585.99;109652;1250;60499;-67
2022/03/06 09:22:21;;;;;;;11.60;9.00;;;;;;;14.05;24.65;97585.45;109820;1250;72331;-65
2022/03/06 09:24:53;;;;;;;10.80;8.60;;;;;;;14.56;25.14;97587.27;109796;1250;68712;-66
2022/03/06 09:27:28;;;;;;;9.00;7.20;;;;;;;15.56;23.71;97585.45;109612;1250;69768;-68
2022/03/06 09:30:08;;;;;;;10.70;8.00;;;;;;;15.97;23.49;97579.67;109644;1250;60540;-70
2022/03/06 09:32:42;;;;;;;9.50;7.40;;;;;;;15.67;23.00;97579.02;109582;1250;60611;-67
2022/03/06 09:35:16;;;;;;;10.40;8.10;;;;;;;16.34;23.37;97578.10;109418;1253;72868;-65
2022/03/06 09:37:46;;;;;;;11.30;9.50;;;;;;;16.46;21.96;97577.75;109866;1250;68661;-67
2022/03/06 09:40:19;;;;;;;10.40;7.80;;;;;;;15.46;22.45;97576.36;109870;1250;67661;-65
2022/03/06 09:42:53;;;;;;;9.20;7.40;;;;;;;15.20;23.65;97577.31;109571;1250;60528;-64
2022/03/06 09:45:29;;;;;;;10.50;8.00;;;;;;;14.38;23.25;97566.90;109593;1250;60430;-65
2022/03/06 09:47:59;;;;;;;9.10;7.10;;;;;;;15.26;24.63;97565.48;109774;1250;72981;-66
2022/03/06 09:50:28;;;;;;;10.80;8.70;;;;;;;16.40;22.95;97560.55;109840;1250;67977;-64
2022/03/06 09:52:57;;;;;;;11.30;9.50;;;;;;;16.68;21.99;97558.73;109731;1250;68666;-66
2022/03/06 09:55:29;;;;;;;10.70;8.30;;;;;;;15.95;21.79;97558.05;109788;1250;60538;-63
2022/03/06 09:57:58;;;;;;;9.80;7.60;;;;;;;16.12;22.53;97556.29;109771;1250;60555;-64
2022/03/06 10:00:34;;;;;;;9.30;7.80;;;;;;;17.31;22.24;97553.59;109712;1250;71714;-64
2022/03/06 10:03:04;;;;;;;10.40;8.20;;;;;;;18.35;20.57;97549.45;109723;1250;68539;-64
2022/03/06 10:05:38;;;;;;;10.30;8.30;;;;;;;18.68;19.41;97550.88;109810;1250;68717;-66
2022/03/06 10:08:27;;;;;;;9.00;7.00;;;;;;;18.27;19.30;97545.85;109759;1250;60890;-64
2022/03/06 10:10:57;;;;;;;9.50;7.30;;;;;;;18.26;19.85;97540.05;109810;1250;60569;-65
2022/03/06 10:13:28;;;;;;;9.70;7.30;;;;;;;18.03;19.15;97535.06;109789;1250;73624;-66
2022/03/06 10:16:02;;;;;;;9.60;7.70;;;;;;;17.58;19.56;97533.14;109751;1250;67386;-64
2022/03/06 10:18:34;;;;;;;9.10;8.00;;;;;;;16.51;19.70;97527.74;109786;1250;69448;-67
2022/03/06 10:21:14;;;;;;;9.70;8.00;;;;;;;15.66;21.53;97527.61;109868;1251;60514;-64
2022/03/06 10:23:46;;;;;;;12.50;7.70;;;;;;;14.76;22.69;97529.72;109788;1250;60619;-66
2022/03/06 10:26:23;;;;;;;10.30;8.00;;;;;;;15.05;22.80;97525.30;109845;1250;72341;-66
2022/03/06 10:29:03;;;;;;;10.60;8.40;;;;;;;15.90;22.40;97518.94;109457;1251;67915;-63
2022/03/06 10:31:34;;;;;;;11.40;8.10;;;;;;;16.93;21.40;97514.84;109818;1250;70036;-64
2022/03/06 10:34:08;;;;;;;11.10;8.70;;;;;;;16.90;21.14;97507.87;109924;1250;60563;-64
2022/03/06 10:36:43;;;;;;;9.10;7.30;;;;;;;17.65;21.20;97502.83;109829;1250;60492;-66
2022/03/06 10:39:17;;;;;;;9.60;8.10;;;;;;;18.26;20.08;97500.34;109706;1251;73068;-65
2022/03/06 10:41:50;;;;;;;7.90;6.90;;;;;;;18.33;19.68;97495.36;109838;1250;68615;-66
2022/03/06 10:44:21;;;;;;;9.20;7.30;;;;;;;18.73;19.66;97494.02;109885;1250;68504;-67
2022/03/06 10:47:04;;;;;;;8.90;7.00;;;;;;;18.82;18.13;97483.02;109762;1250;60532;-65
2022/03/06 10:49:34;;;;;;;10.00;7.50;;;;;;;18.76;18.55;97480.67;109763;1249;60522;-68
2022/03/06 10:52:19;;;;;;;9.80;8.00;;;;;;;18.39;18.90;97475.83;109628;1250;72931;-66
2022/03/06 10:54:54;;;;;;;9.60;7.60;;;;;;;18.50;19.00;97473.86;109863;1249;68147;-66
2022/03/06 10:57:24;;;;;;;8.70;7.70;;;;;;;17.25;20.22;97471.56;109776;1250;69433;-64
2022/03/06 10:59:55;;;;;;;7.10;6.40;;;;;;;17.98;20.42;97468.55;109648;1252;60542;-66
2022/03/06 11:02:26;;;;;;;8.30;7.10;;;;;;;18.56;19.10;97461.98;109801;1250;60521;-64
2022/03/06 11:04:58;;;;;;;8.40;6.60;;;;;;;19.04;19.13;97455.65;109868;1250;72224;-64
2022/03/06 11:07:28;;;;;;;9.10;6.90;;;;;;;19.75;18.78;97450.13;109868;1249;67907;-64
2022/03/06 11:09:58;;;;;;;7.90;6.30;;;;;;;20.44;17.90;97453.08;109932;1249;70470;-64
2022/03/06 11:12:30;;;;;;;7.50;6.10;;;;;;;21.14;18.43;97444.16;109856;1250;60505;-63
2022/03/06 11:15:07;;;;;;;8.00;6.60;;;;;;;21.89;17.38;97443.73;109977;1249;60538;-64
2022/03/06 11:17:41;;;;;;;8.60;7.40;;;;;;;22.52;16.13;97444.59;109847;1250;72323;-63
2022/03/06 11:20:11;;;;;;;7.20;6.00;;;;;;;22.76;16.39;97444.80;110004;1248;68053;-66
2022/03/06 11:22:49;;;;;;;7.10;5.70;;;;;;;23.53;15.80;97436.52;109583;1250;69560;-66
2022/03/06 11:25:25;;;;;;;8.20;6.10;;;;;;;22.59;14.80;97431.00;109923;1250;60495;-68
2022/03/06 11:28:39;;;;;;;7.20;6.40;;;;;;;22.54;15.15;97425.46;109777;1250;60537;-67
2022/03/06 11:31:08;;;;;;;7.90;6.60;;;;;;;21.88;15.54;97422.43;109873;1248;72894;-64
2022/03/06 11:33:43;;;;;;;;;;;;;;;22.59;15.11;97420.38;109792;1250;68769;-63
2022/03/06 11:36:21;;;;;;;7.90;6.90;;;;;;;22.17;15.17;97415.27;109888;1250;68625;-62